sensor_id;sensor_type;location;lat;lon;timestamp;P1;durP1;ratioP1;P2;durP2;ratioP2
19006;SDS011;9636;47.382;8.480;2023-09-30T00:00:15;11.82;;;6.85;;
19006;SDS011;9636;47.382;8.480;2023-09-30T00:02:42;12.20;;;6.60;;
19006;SDS011;9636;47.382;8.480;2023-09-30T00:05:09;11.73;;;6.93;;
19006;SDS011;9636;47.382;8.480;2023-09-30T00:07:37;11.48;;;7.10;;
19006;SDS011;9636;47.382;8.480;2023-09-30T00:10:05;12.13;;;6.95;;
19006;SDS011;9636;47.382;8.480;2023-09-30T00:12:33;12.73;;;7.20;;
19006;SDS011;9636;47.382;8.480;2023-09-30T00:14:59;12.35;;;6.75;;
19006;SDS011;9636;47.382;8.480;2023-09-30T00:17:26;10.02;;;6.00;;
19006;SDS011;9636;47.382;8.480;2023-09-30T00:19:53;10.05;;;6.35;;
19006;SDS011;9636;47.382;8.480;2023-09-30T00:22:20;14.60;;;6.95;;
19006;SDS011;9636;47.382;8.480;2023-09-30T00:24:48;10.63;;;6.30;;
19006;SDS011;9636;47.382;8.480;2023-09-30T00:27:15;10.70;;;6.00;;
19006;SDS011;9636;47.382;8.480;2023-09-30T00:29:41;13.07;;;7.28;;
19006;SDS011;9636;47.382;8.480;2023-09-30T00:32:08;11.82;;;6.68;;
19006;SDS011;9636;47.382;8.480;2023-09-30T00:34:35;10.75;;;6.80;;
19006;SDS011;9636;47.382;8.480;2023-09-30T00:37:02;10.32;;;6.40;;
19006;SDS011;9636;47.382;8.480;2023-09-30T00:39:29;10.10;;;6.72;;
19006;SDS011;9636;47.382;8.480;2023-09-30T00:41:57;10.95;;;6.68;;
19006;SDS011;9636;47.382;8.480;2023-09-30T00:44:24;12.20;;;6.78;;
19006;SDS011;9636;47.382;8.480;2023-09-30T00:46:51;11.32;;;6.80;;
19006;SDS011;9636;47.382;8.480;2023-09-30T00:49:20;10.82;;;6.50;;
19006;SDS011;9636;47.382;8.480;2023-09-30T00:51:48;10.63;;;6.85;;
19006;SDS011;9636;47.382;8.480;2023-09-30T00:54:15;14.20;;;7.20;;
19006;SDS011;9636;47.382;8.480;2023-09-30T00:56:44;11.10;;;6.35;;
19006;SDS011;9636;47.382;8.480;2023-09-30T00:59:13;11.32;;;6.35;;
19006;SDS011;9636;47.382;8.480;2023-09-30T01:01:41;10.38;;;6.30;;
19006;SDS011;9636;47.382;8.480;2023-09-30T01:04:09;9.50;;;6.20;;
19006;SDS011;9636;47.382;8.480;2023-09-30T01:06:36;11.15;;;6.55;;
19006;SDS011;9636;47.382;8.480;2023-09-30T01:09:03;11.02;;;6.47;;
19006;SDS011;9636;47.382;8.480;2023-09-30T01:11:30;9.68;;;6.05;;
19006;SDS011;9636;47.382;8.480;2023-09-30T01:13:57;10.93;;;6.15;;
19006;SDS011;9636;47.382;8.480;2023-09-30T01:16:25;10.23;;;6.47;;
19006;SDS011;9636;47.382;8.480;2023-09-30T01:18:52;10.88;;;6.53;;
19006;SDS011;9636;47.382;8.480;2023-09-30T01:21:18;10.80;;;6.38;;
19006;SDS011;9636;47.382;8.480;2023-09-30T01:23:47;9.07;;;5.82;;
19006;SDS011;9636;47.382;8.480;2023-09-30T01:26:14;9.93;;;6.30;;
19006;SDS011;9636;47.382;8.480;2023-09-30T01:28:41;11.95;;;6.57;;
19006;SDS011;9636;47.382;8.480;2023-09-30T01:31:08;9.93;;;6.00;;
19006;SDS011;9636;47.382;8.480;2023-09-30T01:33:35;10.68;;;5.97;;
19006;SDS011;9636;47.382;8.480;2023-09-30T01:36:03;10.93;;;6.40;;
19006;SDS011;9636;47.382;8.480;2023-09-30T01:38:30;11.38;;;6.55;;
19006;SDS011;9636;47.382;8.480;2023-09-30T01:40:58;10.57;;;6.43;;
19006;SDS011;9636;47.382;8.480;2023-09-30T01:43:25;10.82;;;6.35;;
19006;SDS011;9636;47.382;8.480;2023-09-30T01:45:52;9.45;;;6.18;;
19006;SDS011;9636;47.382;8.480;2023-09-30T01:48:19;10.45;;;6.28;;
19006;SDS011;9636;47.382;8.480;2023-09-30T01:50:45;9.63;;;5.78;;
19006;SDS011;9636;47.382;8.480;2023-09-30T01:53:13;9.57;;;6.28;;
19006;SDS011;9636;47.382;8.480;2023-09-30T01:55:39;10.23;;;6.10;;
19006;SDS011;9636;47.382;8.480;2023-09-30T01:58:07;11.95;;;6.78;;
19006;SDS011;9636;47.382;8.480;2023-09-30T02:00:36;9.38;;;5.60;;
19006;SDS011;9636;47.382;8.480;2023-09-30T02:03:03;11.05;;;6.10;;
19006;SDS011;9636;47.382;8.480;2023-09-30T02:05:30;9.98;;;5.80;;
19006;SDS011;9636;47.382;8.480;2023-09-30T02:07:57;8.95;;;5.82;;
19006;SDS011;9636;47.382;8.480;2023-09-30T02:10:23;10.13;;;6.20;;
19006;SDS011;9636;47.382;8.480;2023-09-30T02:12:50;9.70;;;5.82;;
19006;SDS011;9636;47.382;8.480;2023-09-30T02:15:18;9.13;;;5.45;;
19006;SDS011;9636;47.382;8.480;2023-09-30T02:17:45;9.95;;;5.55;;
19006;SDS011;9636;47.382;8.480;2023-09-30T02:20:14;9.38;;;5.38;;
19006;SDS011;9636;47.382;8.480;2023-09-30T02:22:44;8.75;;;5.47;;
19006;SDS011;9636;47.382;8.480;2023-09-30T02:25:12;9.75;;;5.82;;
19006;SDS011;9636;47.382;8.480;2023-09-30T02:27:39;8.07;;;5.50;;
19006;SDS011;9636;47.382;8.480;2023-09-30T02:30:07;8.40;;;5.40;;
19006;SDS011;9636;47.382;8.480;2023-09-30T02:32:38;9.98;;;5.32;;
19006;SDS011;9636;47.382;8.480;2023-09-30T02:35:06;9.85;;;5.80;;
19006;SDS011;9636;47.382;8.480;2023-09-30T02:37:36;10.90;;;6.00;;
19006;SDS011;9636;47.382;8.480;2023-09-30T02:40:03;10.57;;;5.78;;
19006;SDS011;9636;47.382;8.480;2023-09-30T02:42:34;9.32;;;5.55;;
19006;SDS011;9636;47.382;8.480;2023-09-30T02:45:01;9.32;;;5.25;;
19006;SDS011;9636;47.382;8.480;2023-09-30T02:47:28;10.00;;;6.43;;
19006;SDS011;9636;47.382;8.480;2023-09-30T02:49:56;9.90;;;6.03;;
19006;SDS011;9636;47.382;8.480;2023-09-30T02:52:24;9.50;;;5.65;;
19006;SDS011;9636;47.382;8.480;2023-09-30T02:54:51;10.02;;;5.85;;
19006;SDS011;9636;47.382;8.480;2023-09-30T02:57:18;8.82;;;5.38;;
19006;SDS011;9636;47.382;8.480;2023-09-30T02:59:45;9.27;;;5.25;;
19006;SDS011;9636;47.382;8.480;2023-09-30T03:02:13;9.25;;;5.32;;
19006;SDS011;9636;47.382;8.480;2023-09-30T03:04:40;10.07;;;5.45;;
19006;SDS011;9636;47.382;8.480;2023-09-30T03:07:09;9.60;;;5.22;;
19006;SDS011;9636;47.382;8.480;2023-09-30T03:09:36;8.25;;;5.25;;
19006;SDS011;9636;47.382;8.480;2023-09-30T03:12:02;9.75;;;5.00;;
19006;SDS011;9636;47.382;8.480;2023-09-30T03:14:30;8.45;;;5.07;;
19006;SDS011;9636;47.382;8.480;2023-09-30T03:16:57;9.18;;;5.63;;
19006;SDS011;9636;47.382;8.480;2023-09-30T03:19:24;9.55;;;5.63;;
19006;SDS011;9636;47.382;8.480;2023-09-30T03:21:51;9.43;;;5.93;;
19006;SDS011;9636;47.382;8.480;2023-09-30T03:24:19;8.23;;;4.88;;
19006;SDS011;9636;47.382;8.480;2023-09-30T03:26:47;9.05;;;5.13;;
19006;SDS011;9636;47.382;8.480;2023-09-30T03:29:14;8.73;;;5.30;;
19006;SDS011;9636;47.382;8.480;2023-09-30T03:31:41;9.35;;;5.35;;
19006;SDS011;9636;47.382;8.480;2023-09-30T03:34:08;8.15;;;4.85;;
19006;SDS011;9636;47.382;8.480;2023-09-30T03:36:35;9.27;;;5.53;;
19006;SDS011;9636;47.382;8.480;2023-09-30T03:39:01;8.93;;;5.18;;
19006;SDS011;9636;47.382;8.480;2023-09-30T03:41:34;9.48;;;5.30;;
19006;SDS011;9636;47.382;8.480;2023-09-30T03:44:02;7.07;;;4.63;;
19006;SDS011;9636;47.382;8.480;2023-09-30T03:46:29;7.90;;;4.82;;
19006;SDS011;9636;47.382;8.480;2023-09-30T03:48:56;8.95;;;5.20;;
19006;SDS011;9636;47.382;8.480;2023-09-30T03:51:24;9.23;;;5.03;;
19006;SDS011;9636;47.382;8.480;2023-09-30T03:53:51;9.45;;;5.25;;
19006;SDS011;9636;47.382;8.480;2023-09-30T03:56:18;8.15;;;4.88;;
19006;SDS011;9636;47.382;8.480;2023-09-30T03:58:48;8.40;;;4.90;;
19006;SDS011;9636;47.382;8.480;2023-09-30T04:01:15;9.05;;;4.85;;
19006;SDS011;9636;47.382;8.480;2023-09-30T04:03:44;8.27;;;4.80;;
19006;SDS011;9636;47.382;8.480;2023-09-30T04:06:11;8.02;;;4.88;;
19006;SDS011;9636;47.382;8.480;2023-09-30T04:08:38;10.73;;;5.30;;
19006;SDS011;9636;47.382;8.480;2023-09-30T04:11:05;7.82;;;4.72;;
19006;SDS011;9636;47.382;8.480;2023-09-30T04:13:32;7.75;;;5.13;;
19006;SDS011;9636;47.382;8.480;2023-09-30T04:16:01;7.78;;;4.60;;
19006;SDS011;9636;47.382;8.480;2023-09-30T04:18:28;8.32;;;4.72;;
19006;SDS011;9636;47.382;8.480;2023-09-30T04:20:55;8.15;;;4.68;;
19006;SDS011;9636;47.382;8.480;2023-09-30T04:23:22;8.05;;;4.70;;
19006;SDS011;9636;47.382;8.480;2023-09-30T04:25:49;8.75;;;4.80;;
19006;SDS011;9636;47.382;8.480;2023-09-30T04:28:15;8.52;;;5.07;;
19006;SDS011;9636;47.382;8.480;2023-09-30T04:30:46;8.52;;;5.05;;
19006;SDS011;9636;47.382;8.480;2023-09-30T04:33:15;8.15;;;4.32;;
19006;SDS011;9636;47.382;8.480;2023-09-30T04:35:43;7.65;;;4.00;;
19006;SDS011;9636;47.382;8.480;2023-09-30T04:38:10;8.45;;;4.82;;
19006;SDS011;9636;47.382;8.480;2023-09-30T04:40:38;6.70;;;4.43;;
19006;SDS011;9636;47.382;8.480;2023-09-30T04:43:05;8.00;;;4.80;;
19006;SDS011;9636;47.382;8.480;2023-09-30T04:45:31;9.73;;;4.72;;
19006;SDS011;9636;47.382;8.480;2023-09-30T04:47:58;7.10;;;4.70;;
19006;SDS011;9636;47.382;8.480;2023-09-30T04:50:28;7.43;;;4.45;;
19006;SDS011;9636;47.382;8.480;2023-09-30T04:52:55;7.35;;;4.72;;
19006;SDS011;9636;47.382;8.480;2023-09-30T04:55:23;8.10;;;4.68;;
19006;SDS011;9636;47.382;8.480;2023-09-30T04:57:51;7.60;;;4.50;;
19006;SDS011;9636;47.382;8.480;2023-09-30T05:00:19;7.57;;;4.75;;
19006;SDS011;9636;47.382;8.480;2023-09-30T05:02:50;7.30;;;4.28;;
19006;SDS011;9636;47.382;8.480;2023-09-30T05:05:17;8.25;;;4.30;;
19006;SDS011;9636;47.382;8.480;2023-09-30T05:07:46;7.50;;;4.20;;
19006;SDS011;9636;47.382;8.480;2023-09-30T05:10:13;7.03;;;3.88;;
19006;SDS011;9636;47.382;8.480;2023-09-30T05:12:41;6.93;;;4.00;;
19006;SDS011;9636;47.382;8.480;2023-09-30T05:15:10;7.60;;;4.18;;
19006;SDS011;9636;47.382;8.480;2023-09-30T05:17:38;6.78;;;4.35;;
19006;SDS011;9636;47.382;8.480;2023-09-30T05:20:04;7.45;;;4.55;;
19006;SDS011;9636;47.382;8.480;2023-09-30T05:22:32;7.03;;;4.05;;
19006;SDS011;9636;47.382;8.480;2023-09-30T05:25:00;7.43;;;4.32;;
19006;SDS011;9636;47.382;8.480;2023-09-30T05:27:27;7.55;;;4.20;;
19006;SDS011;9636;47.382;8.480;2023-09-30T05:29:54;7.10;;;4.13;;
19006;SDS011;9636;47.382;8.480;2023-09-30T05:32:21;6.80;;;4.30;;
19006;SDS011;9636;47.382;8.480;2023-09-30T05:34:48;6.93;;;4.13;;
19006;SDS011;9636;47.382;8.480;2023-09-30T05:37:15;7.47;;;4.30;;
19006;SDS011;9636;47.382;8.480;2023-09-30T05:39:42;6.53;;;3.90;;
19006;SDS011;9636;47.382;8.480;2023-09-30T05:42:11;7.25;;;4.03;;
19006;SDS011;9636;47.382;8.480;2023-09-30T05:44:38;7.20;;;4.28;;
19006;SDS011;9636;47.382;8.480;2023-09-30T05:47:04;6.93;;;3.88;;
19006;SDS011;9636;47.382;8.480;2023-09-30T05:49:31;8.07;;;4.05;;
19006;SDS011;9636;47.382;8.480;2023-09-30T05:51:58;7.78;;;4.35;;
19006;SDS011;9636;47.382;8.480;2023-09-30T05:54:25;6.10;;;3.60;;
19006;SDS011;9636;47.382;8.480;2023-09-30T05:56:52;7.18;;;3.95;;
19006;SDS011;9636;47.382;8.480;2023-09-30T05:59:20;6.93;;;4.00;;
19006;SDS011;9636;47.382;8.480;2023-09-30T06:01:47;7.18;;;4.05;;
19006;SDS011;9636;47.382;8.480;2023-09-30T06:04:14;6.38;;;4.20;;
19006;SDS011;9636;47.382;8.480;2023-09-30T06:06:41;6.47;;;3.90;;
19006;SDS011;9636;47.382;8.480;2023-09-30T06:09:08;7.95;;;4.80;;
19006;SDS011;9636;47.382;8.480;2023-09-30T06:11:36;6.70;;;4.03;;
19006;SDS011;9636;47.382;8.480;2023-09-30T06:14:03;9.10;;;4.57;;
19006;SDS011;9636;47.382;8.480;2023-09-30T06:16:33;7.07;;;4.10;;
19006;SDS011;9636;47.382;8.480;2023-09-30T06:19:00;6.28;;;3.78;;
19006;SDS011;9636;47.382;8.480;2023-09-30T06:21:28;8.02;;;4.38;;
19006;SDS011;9636;47.382;8.480;2023-09-30T06:23:55;7.18;;;4.13;;
19006;SDS011;9636;47.382;8.480;2023-09-30T06:26:21;6.82;;;4.10;;
19006;SDS011;9636;47.382;8.480;2023-09-30T06:28:50;7.15;;;4.18;;
19006;SDS011;9636;47.382;8.480;2023-09-30T06:31:19;5.82;;;3.33;;
19006;SDS011;9636;47.382;8.480;2023-09-30T06:33:49;6.65;;;4.10;;
19006;SDS011;9636;47.382;8.480;2023-09-30T06:36:16;8.00;;;4.00;;
19006;SDS011;9636;47.382;8.480;2023-09-30T06:38:43;5.47;;;3.53;;
19006;SDS011;9636;47.382;8.480;2023-09-30T06:41:15;5.75;;;3.75;;
19006;SDS011;9636;47.382;8.480;2023-09-30T06:43:42;6.13;;;3.83;;
19006;SDS011;9636;47.382;8.480;2023-09-30T06:46:09;7.95;;;3.97;;
19006;SDS011;9636;47.382;8.480;2023-09-30T06:48:36;7.18;;;3.72;;
19006;SDS011;9636;47.382;8.480;2023-09-30T06:51:06;6.85;;;4.00;;
19006;SDS011;9636;47.382;8.480;2023-09-30T06:53:33;5.85;;;4.07;;
19006;SDS011;9636;47.382;8.480;2023-09-30T06:56:04;7.15;;;4.15;;
19006;SDS011;9636;47.382;8.480;2023-09-30T06:58:31;6.38;;;3.70;;
19006;SDS011;9636;47.382;8.480;2023-09-30T07:00:58;6.65;;;4.18;;
19006;SDS011;9636;47.382;8.480;2023-09-30T07:03:25;6.32;;;3.92;;
19006;SDS011;9636;47.382;8.480;2023-09-30T07:05:51;7.38;;;4.05;;
19006;SDS011;9636;47.382;8.480;2023-09-30T07:08:20;6.90;;;3.72;;
19006;SDS011;9636;47.382;8.480;2023-09-30T07:10:47;7.30;;;3.95;;
19006;SDS011;9636;47.382;8.480;2023-09-30T07:13:15;8.55;;;4.30;;
19006;SDS011;9636;47.382;8.480;2023-09-30T07:15:43;6.50;;;3.60;;
19006;SDS011;9636;47.382;8.480;2023-09-30T07:18:09;7.25;;;4.55;;
19006;SDS011;9636;47.382;8.480;2023-09-30T07:20:37;6.10;;;3.78;;
19006;SDS011;9636;47.382;8.480;2023-09-30T07:23:04;6.55;;;3.80;;
19006;SDS011;9636;47.382;8.480;2023-09-30T07:25:32;5.72;;;3.90;;
19006;SDS011;9636;47.382;8.480;2023-09-30T07:27:59;7.05;;;4.50;;
19006;SDS011;9636;47.382;8.480;2023-09-30T07:30:27;7.88;;;4.20;;
19006;SDS011;9636;47.382;8.480;2023-09-30T07:32:54;8.25;;;4.00;;
19006;SDS011;9636;47.382;8.480;2023-09-30T07:35:20;7.00;;;3.97;;
19006;SDS011;9636;47.382;8.480;2023-09-30T07:37:49;7.38;;;3.80;;
19006;SDS011;9636;47.382;8.480;2023-09-30T07:40:18;7.85;;;4.13;;
19006;SDS011;9636;47.382;8.480;2023-09-30T07:42:47;9.57;;;4.60;;
19006;SDS011;9636;47.382;8.480;2023-09-30T07:45:15;12.10;;;5.03;;
19006;SDS011;9636;47.382;8.480;2023-09-30T07:47:42;10.00;;;4.70;;
19006;SDS011;9636;47.382;8.480;2023-09-30T07:50:11;12.48;;;4.50;;
19006;SDS011;9636;47.382;8.480;2023-09-30T07:52:38;10.32;;;4.57;;
19006;SDS011;9636;47.382;8.480;2023-09-30T07:55:06;12.35;;;4.78;;
19006;SDS011;9636;47.382;8.480;2023-09-30T07:57:34;11.82;;;4.65;;
19006;SDS011;9636;47.382;8.480;2023-09-30T08:00:02;10.07;;;4.70;;
19006;SDS011;9636;47.382;8.480;2023-09-30T08:02:33;11.27;;;4.80;;
19006;SDS011;9636;47.382;8.480;2023-09-30T08:05:00;9.85;;;4.75;;
19006;SDS011;9636;47.382;8.480;2023-09-30T08:07:26;9.25;;;4.95;;
19006;SDS011;9636;47.382;8.480;2023-09-30T08:09:53;16.88;;;5.03;;
19006;SDS011;9636;47.382;8.480;2023-09-30T08:12:20;11.15;;;5.30;;
19006;SDS011;9636;47.382;8.480;2023-09-30T08:14:47;8.70;;;5.30;;
19006;SDS011;9636;47.382;8.480;2023-09-30T08:17:15;8.95;;;4.97;;
19006;SDS011;9636;47.382;8.480;2023-09-30T08:19:42;9.57;;;5.22;;
19006;SDS011;9636;47.382;8.480;2023-09-30T08:22:09;9.40;;;4.80;;
19006;SDS011;9636;47.382;8.480;2023-09-30T08:24:36;8.13;;;4.63;;
19006;SDS011;9636;47.382;8.480;2023-09-30T08:27:03;9.95;;;4.47;;
19006;SDS011;9636;47.382;8.480;2023-09-30T08:29:32;8.88;;;4.88;;
19006;SDS011;9636;47.382;8.480;2023-09-30T08:32:00;8.70;;;4.85;;
19006;SDS011;9636;47.382;8.480;2023-09-30T08:34:28;11.43;;;5.35;;
19006;SDS011;9636;47.382;8.480;2023-09-30T08:36:55;9.18;;;4.80;;
19006;SDS011;9636;47.382;8.480;2023-09-30T08:39:23;10.98;;;4.70;;
19006;SDS011;9636;47.382;8.480;2023-09-30T08:41:50;7.60;;;4.70;;
19006;SDS011;9636;47.382;8.480;2023-09-30T08:44:18;10.52;;;5.40;;
19006;SDS011;9636;47.382;8.480;2023-09-30T08:46:45;11.63;;;5.13;;
19006;SDS011;9636;47.382;8.480;2023-09-30T08:49:13;9.43;;;5.03;;
19006;SDS011;9636;47.382;8.480;2023-09-30T08:51:42;9.63;;;5.15;;
19006;SDS011;9636;47.382;8.480;2023-09-30T08:54:09;9.95;;;5.20;;
19006;SDS011;9636;47.382;8.480;2023-09-30T08:56:36;9.57;;;5.00;;
19006;SDS011;9636;47.382;8.480;2023-09-30T08:59:07;10.38;;;5.10;;
19006;SDS011;9636;47.382;8.480;2023-09-30T09:01:36;11.63;;;5.25;;
19006;SDS011;9636;47.382;8.480;2023-09-30T09:04:04;10.82;;;5.60;;
19006;SDS011;9636;47.382;8.480;2023-09-30T09:06:33;9.73;;;4.93;;
19006;SDS011;9636;47.382;8.480;2023-09-30T09:09:13;9.85;;;5.03;;
19006;SDS011;9636;47.382;8.480;2023-09-30T09:11:41;8.98;;;5.22;;
19006;SDS011;9636;47.382;8.480;2023-09-30T09:14:08;11.35;;;5.90;;
19006;SDS011;9636;47.382;8.480;2023-09-30T09:16:35;9.23;;;5.43;;
19006;SDS011;9636;47.382;8.480;2023-09-30T09:19:12;11.45;;;5.85;;
19006;SDS011;9636;47.382;8.480;2023-09-30T09:21:44;10.95;;;5.65;;
19006;SDS011;9636;47.382;8.480;2023-09-30T09:24:27;10.93;;;5.50;;
19006;SDS011;9636;47.382;8.480;2023-09-30T09:27:03;10.73;;;5.68;;
19006;SDS011;9636;47.382;8.480;2023-09-30T09:29:32;10.98;;;5.60;;
19006;SDS011;9636;47.382;8.480;2023-09-30T09:32:08;9.85;;;5.07;;
19006;SDS011;9636;47.382;8.480;2023-09-30T09:34:36;11.50;;;5.80;;
19006;SDS011;9636;47.382;8.480;2023-09-30T09:37:12;15.98;;;5.75;;
19006;SDS011;9636;47.382;8.480;2023-09-30T09:39:49;11.02;;;5.78;;
19006;SDS011;9636;47.382;8.480;2023-09-30T09:42:26;11.00;;;5.50;;
19006;SDS011;9636;47.382;8.480;2023-09-30T09:44:54;9.73;;;5.28;;
19006;SDS011;9636;47.382;8.480;2023-09-30T09:47:23;11.00;;;5.28;;
19006;SDS011;9636;47.382;8.480;2023-09-30T09:49:50;9.20;;;5.32;;
19006;SDS011;9636;47.382;8.480;2023-09-30T09:52:17;13.10;;;5.40;;
19006;SDS011;9636;47.382;8.480;2023-09-30T09:54:45;14.57;;;5.63;;
19006;SDS011;9636;47.382;8.480;2023-09-30T09:57:14;11.90;;;5.75;;
19006;SDS011;9636;47.382;8.480;2023-09-30T09:59:43;12.82;;;5.70;;
19006;SDS011;9636;47.382;8.480;2023-09-30T10:02:13;10.07;;;5.38;;
19006;SDS011;9636;47.382;8.480;2023-09-30T10:04:42;10.80;;;5.40;;
19006;SDS011;9636;47.382;8.480;2023-09-30T10:07:10;10.88;;;5.13;;
19006;SDS011;9636;47.382;8.480;2023-09-30T10:09:41;9.95;;;5.40;;
19006;SDS011;9636;47.382;8.480;2023-09-30T10:12:14;10.45;;;5.55;;
19006;SDS011;9636;47.382;8.480;2023-09-30T10:14:42;11.13;;;5.82;;
19006;SDS011;9636;47.382;8.480;2023-09-30T10:17:09;8.30;;;4.97;;
19006;SDS011;9636;47.382;8.480;2023-09-30T10:19:36;13.98;;;5.88;;
19006;SDS011;9636;47.382;8.480;2023-09-30T10:22:32;11.43;;;5.25;;
19006;SDS011;9636;47.382;8.480;2023-09-30T10:24:59;11.50;;;5.20;;
19006;SDS011;9636;47.382;8.480;2023-09-30T10:27:34;9.60;;;5.20;;
19006;SDS011;9636;47.382;8.480;2023-09-30T10:30:06;10.77;;;4.85;;
19006;SDS011;9636;47.382;8.480;2023-09-30T10:35:44;9.40;;;5.25;;
19006;SDS011;9636;47.382;8.480;2023-09-30T10:41:08;11.85;;;5.20;;
19006;SDS011;9636;47.382;8.480;2023-09-30T10:43:37;9.55;;;5.35;;
19006;SDS011;9636;47.382;8.480;2023-09-30T10:48:56;12.20;;;5.35;;
19006;SDS011;9636;47.382;8.480;2023-09-30T10:51:24;10.07;;;5.10;;
19006;SDS011;9636;47.382;8.480;2023-09-30T10:53:52;9.27;;;4.97;;
19006;SDS011;9636;47.382;8.480;2023-09-30T10:56:22;11.00;;;5.55;;
19006;SDS011;9636;47.382;8.480;2023-09-30T10:58:50;9.90;;;5.30;;
19006;SDS011;9636;47.382;8.480;2023-09-30T11:01:17;9.45;;;5.10;;
19006;SDS011;9636;47.382;8.480;2023-09-30T11:03:46;9.25;;;5.40;;
19006;SDS011;9636;47.382;8.480;2023-09-30T11:06:16;11.10;;;5.47;;
19006;SDS011;9636;47.382;8.480;2023-09-30T11:08:51;9.10;;;5.20;;
19006;SDS011;9636;47.382;8.480;2023-09-30T11:11:19;9.85;;;5.30;;
19006;SDS011;9636;47.382;8.480;2023-09-30T11:13:57;9.75;;;5.55;;
19006;SDS011;9636;47.382;8.480;2023-09-30T11:16:24;11.77;;;5.50;;
19006;SDS011;9636;47.382;8.480;2023-09-30T11:18:53;15.48;;;5.78;;
19006;SDS011;9636;47.382;8.480;2023-09-30T11:21:19;9.80;;;5.43;;
19006;SDS011;9636;47.382;8.480;2023-09-30T11:23:49;10.68;;;5.15;;
19006;SDS011;9636;47.382;8.480;2023-09-30T11:28:55;13.50;;;5.72;;
19006;SDS011;9636;47.382;8.480;2023-09-30T11:31:22;15.48;;;5.65;;
19006;SDS011;9636;47.382;8.480;2023-09-30T11:33:52;10.88;;;5.20;;
19006;SDS011;9636;47.382;8.480;2023-09-30T11:36:22;13.50;;;5.93;;
19006;SDS011;9636;47.382;8.480;2023-09-30T11:38:51;10.40;;;5.10;;
19006;SDS011;9636;47.382;8.480;2023-09-30T11:41:18;12.40;;;5.65;;
19006;SDS011;9636;47.382;8.480;2023-09-30T11:43:59;10.93;;;5.03;;
19006;SDS011;9636;47.382;8.480;2023-09-30T11:46:30;20.73;;;5.47;;
19006;SDS011;9636;47.382;8.480;2023-09-30T11:48:59;26.90;;;5.93;;
19006;SDS011;9636;47.382;8.480;2023-09-30T11:51:27;20.70;;;5.53;;
19006;SDS011;9636;47.382;8.480;2023-09-30T11:53:57;12.93;;;5.53;;
19006;SDS011;9636;47.382;8.480;2023-09-30T11:56:27;11.75;;;5.10;;
19006;SDS011;9636;47.382;8.480;2023-09-30T11:58:54;12.15;;;4.80;;
19006;SDS011;9636;47.382;8.480;2023-09-30T12:01:21;12.38;;;5.13;;
19006;SDS011;9636;47.382;8.480;2023-09-30T12:03:50;14.73;;;4.97;;
19006;SDS011;9636;47.382;8.480;2023-09-30T12:06:18;13.77;;;5.40;;
19006;SDS011;9636;47.382;8.480;2023-09-30T12:08:45;14.15;;;5.68;;
19006;SDS011;9636;47.382;8.480;2023-09-30T12:11:13;10.00;;;5.28;;
19006;SDS011;9636;47.382;8.480;2023-09-30T12:13:41;11.07;;;5.43;;
19006;SDS011;9636;47.382;8.480;2023-09-30T12:16:09;11.18;;;4.85;;
19006;SDS011;9636;47.382;8.480;2023-09-30T12:18:37;10.82;;;5.32;;
19006;SDS011;9636;47.382;8.480;2023-09-30T12:21:06;12.27;;;5.55;;
19006;SDS011;9636;47.382;8.480;2023-09-30T12:23:33;10.80;;;5.20;;
19006;SDS011;9636;47.382;8.480;2023-09-30T12:26:00;11.15;;;5.30;;
19006;SDS011;9636;47.382;8.480;2023-09-30T12:28:31;10.95;;;5.03;;
19006;SDS011;9636;47.382;8.480;2023-09-30T12:30:58;8.88;;;4.65;;
19006;SDS011;9636;47.382;8.480;2023-09-30T12:33:27;8.38;;;4.65;;
19006;SDS011;9636;47.382;8.480;2023-09-30T12:35:55;10.45;;;5.03;;
19006;SDS011;9636;47.382;8.480;2023-09-30T12:38:23;12.07;;;5.40;;
19006;SDS011;9636;47.382;8.480;2023-09-30T12:40:50;9.77;;;4.63;;
19006;SDS011;9636;47.382;8.480;2023-09-30T12:43:17;9.82;;;5.18;;
19006;SDS011;9636;47.382;8.480;2023-09-30T12:45:46;8.95;;;4.65;;
19006;SDS011;9636;47.382;8.480;2023-09-30T12:48:13;9.73;;;5.05;;
19006;SDS011;9636;47.382;8.480;2023-09-30T12:50:40;9.00;;;4.50;;
19006;SDS011;9636;47.382;8.480;2023-09-30T12:53:07;9.25;;;4.70;;
19006;SDS011;9636;47.382;8.480;2023-09-30T12:55:34;7.95;;;4.40;;
19006;SDS011;9636;47.382;8.480;2023-09-30T12:58:01;7.65;;;4.32;;
19006;SDS011;9636;47.382;8.480;2023-09-30T13:00:30;11.68;;;4.68;;
19006;SDS011;9636;47.382;8.480;2023-09-30T13:02:59;7.80;;;4.88;;
19006;SDS011;9636;47.382;8.480;2023-09-30T13:05:26;8.95;;;4.85;;
19006;SDS011;9636;47.382;8.480;2023-09-30T13:07:54;8.38;;;4.72;;
19006;SDS011;9636;47.382;8.480;2023-09-30T13:10:21;9.25;;;4.75;;
19006;SDS011;9636;47.382;8.480;2023-09-30T13:12:48;8.05;;;4.22;;
19006;SDS011;9636;47.382;8.480;2023-09-30T13:15:15;8.00;;;4.57;;
19006;SDS011;9636;47.382;8.480;2023-09-30T13:17:43;7.45;;;4.15;;
19006;SDS011;9636;47.382;8.480;2023-09-30T13:20:12;7.82;;;4.38;;
19006;SDS011;9636;47.382;8.480;2023-09-30T13:22:38;7.78;;;4.47;;
19006;SDS011;9636;47.382;8.480;2023-09-30T13:25:06;7.03;;;4.22;;
19006;SDS011;9636;47.382;8.480;2023-09-30T13:27:37;8.85;;;4.57;;
19006;SDS011;9636;47.382;8.480;2023-09-30T13:30:05;7.15;;;4.13;;
19006;SDS011;9636;47.382;8.480;2023-09-30T13:32:32;8.70;;;4.40;;
19006;SDS011;9636;47.382;8.480;2023-09-30T13:35:00;6.80;;;4.07;;
19006;SDS011;9636;47.382;8.480;2023-09-30T13:37:29;7.05;;;4.05;;
19006;SDS011;9636;47.382;8.480;2023-09-30T13:39:58;6.82;;;3.97;;
19006;SDS011;9636;47.382;8.480;2023-09-30T13:42:25;7.70;;;4.40;;
19006;SDS011;9636;47.382;8.480;2023-09-30T13:44:52;7.30;;;4.28;;
19006;SDS011;9636;47.382;8.480;2023-09-30T13:47:19;7.97;;;4.30;;
19006;SDS011;9636;47.382;8.480;2023-09-30T13:49:45;7.28;;;4.40;;
19006;SDS011;9636;47.382;8.480;2023-09-30T13:52:12;7.85;;;4.03;;
19006;SDS011;9636;47.382;8.480;2023-09-30T13:54:40;7.50;;;4.18;;
19006;SDS011;9636;47.382;8.480;2023-09-30T13:57:07;6.90;;;4.13;;
19006;SDS011;9636;47.382;8.480;2023-09-30T13:59:34;7.70;;;4.20;;
19006;SDS011;9636;47.382;8.480;2023-09-30T14:02:01;8.43;;;4.15;;
19006;SDS011;9636;47.382;8.480;2023-09-30T14:04:29;6.43;;;3.67;;
19006;SDS011;9636;47.382;8.480;2023-09-30T14:06:57;9.38;;;4.20;;
19006;SDS011;9636;47.382;8.480;2023-09-30T14:09:24;6.43;;;3.90;;
19006;SDS011;9636;47.382;8.480;2023-09-30T14:11:53;7.45;;;4.20;;
19006;SDS011;9636;47.382;8.480;2023-09-30T14:14:20;7.72;;;4.28;;
19006;SDS011;9636;47.382;8.480;2023-09-30T14:16:46;8.18;;;4.20;;
19006;SDS011;9636;47.382;8.480;2023-09-30T14:19:13;6.30;;;3.78;;
19006;SDS011;9636;47.382;8.480;2023-09-30T14:21:40;7.00;;;4.00;;
19006;SDS011;9636;47.382;8.480;2023-09-30T14:24:07;8.93;;;4.05;;
19006;SDS011;9636;47.382;8.480;2023-09-30T14:26:34;5.88;;;3.60;;
19006;SDS011;9636;47.382;8.480;2023-09-30T14:29:02;6.47;;;4.35;;
19006;SDS011;9636;47.382;8.480;2023-09-30T14:31:29;5.80;;;3.30;;
19006;SDS011;9636;47.382;8.480;2023-09-30T14:33:56;6.45;;;3.83;;
19006;SDS011;9636;47.382;8.480;2023-09-30T14:36:23;7.50;;;3.70;;
19006;SDS011;9636;47.382;8.480;2023-09-30T14:38:49;7.55;;;3.80;;
19006;SDS011;9636;47.382;8.480;2023-09-30T14:41:16;7.35;;;3.90;;
19006;SDS011;9636;47.382;8.480;2023-09-30T14:43:43;6.03;;;3.90;;
19006;SDS011;9636;47.382;8.480;2023-09-30T14:46:12;6.47;;;3.95;;
19006;SDS011;9636;47.382;8.480;2023-09-30T14:48:38;7.15;;;3.80;;
19006;SDS011;9636;47.382;8.480;2023-09-30T14:51:07;7.10;;;3.65;;
19006;SDS011;9636;47.382;8.480;2023-09-30T14:53:34;6.85;;;4.00;;
19006;SDS011;9636;47.382;8.480;2023-09-30T14:56:01;7.85;;;3.72;;
19006;SDS011;9636;47.382;8.480;2023-09-30T14:58:27;6.85;;;3.58;;
19006;SDS011;9636;47.382;8.480;2023-09-30T15:00:54;7.10;;;3.85;;
19006;SDS011;9636;47.382;8.480;2023-09-30T15:03:22;6.40;;;3.92;;
19006;SDS011;9636;47.382;8.480;2023-09-30T15:05:56;8.27;;;3.67;;
19006;SDS011;9636;47.382;8.480;2023-09-30T15:08:24;8.52;;;3.50;;
19006;SDS011;9636;47.382;8.480;2023-09-30T15:10:51;5.93;;;3.72;;
19006;SDS011;9636;47.382;8.480;2023-09-30T15:13:19;6.15;;;3.60;;